Dalian, China
Current Conditions -  °F | °C
As of 1:30 AM on Monday 24 Nov 2014 (Local Time) from ZYTL Reporting Station
Haze Haze  
Wind Chill: 45°   Ceiling: Unl
Heat Index: 48°   Visibility: 3mi
Dew Point: 43°   Wind: 7mph
Humidity: 82%   Direction: 280°W
Pressure: 30.24"   Gusts: NA
Location:  38.92°N, 121.65°E
Report Text: ZYTL 231730Z 28003MPS 5000 BR SCT040 09/06 Q1024 NOSIG
Loading
Personal Weather Stations






























Interactive Weather Map New forecast layout! Learn more

10-Day Weather Forecast

Advertisements
Track Severe Weather on mobile